createdAt,value
2023-05-24T00:01:12.283Z,5.03
2023-05-24T00:03:39.767Z,3.00
2023-05-24T00:06:07.569Z,6.20
2023-05-24T00:08:35.627Z,3.13
2023-05-24T00:11:03.179Z,3.25
2023-05-24T00:13:30.830Z,3.15
2023-05-24T00:15:58.357Z,3.80
2023-05-24T00:18:26.375Z,3.58
2023-05-24T00:20:57.339Z,4.00
2023-05-24T00:23:27.842Z,5.03
2023-05-24T00:25:55.161Z,2.95
2023-05-24T00:28:22.602Z,4.68
2023-05-24T00:30:51.349Z,3.38
2023-05-24T00:33:18.786Z,4.03
2023-05-24T00:35:46.466Z,3.38
2023-05-24T00:38:13.882Z,5.22
2023-05-24T00:40:41.543Z,3.05
2023-05-24T00:43:09.324Z,3.65
2023-05-24T00:45:36.727Z,3.38
2023-05-24T00:48:04.669Z,4.03
2023-05-24T00:50:32.130Z,3.00
2023-05-24T00:53:01.408Z,3.05
2023-05-24T00:55:29.646Z,3.75
2023-05-24T00:58:00.450Z,4.03
2023-05-24T01:00:28.590Z,3.55
2023-05-24T01:02:56.139Z,2.78
2023-05-24T01:05:23.922Z,5.18
2023-05-24T01:08:05.172Z,4.80
2023-05-24T01:10:44.448Z,4.90
2023-05-24T01:13:12.085Z,3.42
2023-05-24T01:15:49.074Z,7.17
2023-05-24T01:18:30.416Z,3.33
2023-05-24T01:21:12.144Z,5.43
2023-05-24T01:23:49.006Z,3.07
2023-05-24T01:26:35.077Z,3.42
2023-05-24T01:29:03.378Z,4.20
2023-05-24T01:31:30.875Z,3.47
2023-05-24T01:33:58.364Z,3.60
2023-05-24T01:36:25.886Z,3.40
2023-05-24T01:38:53.509Z,3.57
2023-05-24T01:41:24.064Z,3.70
2023-05-24T01:44:01.397Z,3.70
2023-05-24T01:46:28.922Z,3.45
2023-05-24T01:48:59.328Z,4.33
2023-05-24T01:51:29.861Z,2.63
2023-05-24T01:53:59.347Z,3.78
2023-05-24T01:56:28.812Z,4.57
2023-05-24T01:58:57.461Z,3.25
2023-05-24T02:01:24.887Z,4.27
2023-05-24T02:03:52.473Z,3.58
2023-05-24T02:06:20.057Z,4.70
2023-05-24T02:08:47.566Z,2.97
2023-05-24T02:11:15.119Z,4.10
2023-05-24T02:13:42.619Z,5.38
2023-05-24T02:16:10.912Z,4.10
2023-05-24T02:18:38.532Z,2.90
2023-05-24T02:21:05.967Z,3.72
2023-05-24T02:23:33.455Z,3.07
2023-05-24T02:26:01.573Z,2.67
2023-05-24T02:28:32.275Z,3.15
2023-05-24T02:31:01.950Z,3.80
2023-05-24T02:33:30.092Z,3.80
2023-05-24T02:35:57.575Z,5.30
2023-05-24T02:38:24.928Z,3.13
2023-05-24T02:40:52.459Z,3.50
2023-05-24T02:43:19.816Z,3.60
2023-05-24T02:45:47.332Z,3.40
2023-05-24T02:48:14.774Z,3.57
2023-05-24T02:50:42.593Z,3.37
2023-05-24T02:53:10.274Z,3.00
2023-05-24T02:55:37.646Z,4.20
2023-05-24T02:58:05.028Z,4.03
2023-05-24T03:00:32.539Z,3.07
2023-05-24T03:03:03.202Z,4.03
2023-05-24T03:05:30.856Z,3.97
2023-05-24T03:07:58.688Z,6.03
2023-05-24T03:10:26.301Z,4.83
2023-05-24T03:12:53.747Z,3.70
2023-05-24T03:15:21.448Z,3.40
2023-05-24T03:17:48.942Z,3.33
2023-05-24T03:20:17.782Z,3.30
2023-05-24T03:22:45.601Z,4.53
2023-05-24T03:25:14.694Z,3.53
2023-05-24T03:27:42.882Z,3.20
2023-05-24T03:30:10.652Z,3.57
2023-05-24T03:32:38.070Z,4.87
2023-05-24T03:35:05.723Z,4.70
2023-05-24T03:37:33.250Z,4.40
2023-05-24T03:40:00.727Z,3.27
2023-05-24T03:42:28.129Z,7.77
2023-05-24T03:44:55.732Z,4.40
2023-05-24T03:47:23.217Z,5.40
2023-05-24T03:49:51.499Z,4.00
2023-05-24T03:52:19.105Z,3.23
2023-05-24T03:54:46.487Z,5.47
2023-05-24T03:57:13.846Z,4.10
2023-05-24T03:59:41.519Z,4.03
2023-05-24T04:02:09.152Z,7.90
2023-05-24T04:04:37.530Z,4.67
2023-05-24T04:07:08.328Z,7.97
2023-05-24T04:09:35.841Z,4.20
2023-05-24T04:12:03.622Z,4.60
2023-05-24T04:14:31.240Z,5.63
2023-05-24T04:16:58.919Z,3.60
2023-05-24T04:19:26.724Z,4.67
2023-05-24T04:21:54.119Z,5.27
2023-05-24T04:24:21.647Z,5.23
2023-05-24T04:26:49.197Z,3.83
2023-05-24T04:29:16.648Z,3.63
2023-05-24T04:31:45.254Z,6.13
2023-05-24T04:34:15.724Z,3.10
2023-05-24T04:36:43.087Z,4.30
2023-05-24T04:39:11.715Z,4.53
2023-05-24T04:41:39.209Z,5.43
2023-05-24T04:44:07.675Z,7.17
2023-05-24T04:46:36.403Z,4.53
2023-05-24T04:49:05.909Z,5.20
2023-05-24T04:51:33.789Z,4.80
2023-05-24T04:54:03.844Z,3.63
2023-05-24T04:56:31.320Z,4.57
2023-05-24T04:58:58.748Z,5.45
2023-05-24T05:01:26.278Z,3.70
2023-05-24T05:03:53.865Z,7.10
2023-05-24T05:06:21.403Z,4.40
2023-05-24T05:08:48.804Z,4.55
2023-05-24T05:11:16.361Z,4.23
2023-05-24T05:13:43.879Z,5.13
2023-05-24T05:16:11.281Z,5.25
2023-05-24T05:18:38.767Z,3.97
2023-05-24T05:21:06.602Z,6.47
2023-05-24T05:23:33.964Z,3.75
2023-05-24T05:26:01.365Z,3.70
2023-05-24T05:28:28.727Z,6.97
2023-05-24T05:30:57.031Z,3.50
2023-05-24T05:33:24.572Z,4.47
2023-05-24T05:35:54.761Z,3.22
2023-05-24T05:38:22.399Z,4.90
2023-05-24T05:40:49.851Z,6.82
2023-05-24T05:43:17.286Z,4.75
2023-05-24T05:45:44.976Z,4.30
2023-05-24T05:48:12.405Z,3.90
2023-05-24T05:50:39.848Z,4.60
2023-05-24T05:53:07.403Z,3.93
2023-05-24T05:55:34.924Z,4.00
2023-05-24T05:58:02.405Z,5.45
2023-05-24T06:00:29.843Z,6.07
2023-05-24T06:02:57.446Z,5.07
2023-05-24T06:05:25.042Z,4.50
2023-05-24T06:07:52.456Z,5.80
2023-05-24T06:10:20.122Z,5.97
2023-05-24T06:12:47.642Z,4.72
2023-05-24T06:15:15.727Z,4.37
2023-05-24T06:17:44.153Z,5.85
2023-05-24T06:20:15.792Z,3.95
2023-05-24T06:22:43.932Z,4.22
2023-05-24T06:25:14.802Z,6.57
2023-05-24T06:27:42.326Z,5.05
2023-05-24T06:30:10.183Z,5.55
2023-05-24T06:32:37.827Z,3.72
2023-05-24T06:35:07.737Z,5.95
2023-05-24T06:37:35.296Z,5.50
2023-05-24T06:40:05.223Z,4.95
2023-05-24T06:42:32.763Z,4.72
2023-05-24T06:45:00.225Z,4.82
2023-05-24T06:47:27.754Z,6.57
2023-05-24T06:49:55.321Z,6.00
2023-05-24T06:52:22.983Z,5.43
2023-05-24T06:54:51.023Z,6.80
2023-05-24T06:57:18.453Z,4.47
2023-05-24T06:59:46.210Z,4.38
2023-05-24T07:02:13.808Z,3.83
2023-05-24T07:04:41.452Z,5.65
2023-05-24T07:07:13.306Z,5.97
2023-05-24T07:09:44.528Z,6.78
2023-05-24T07:12:12.324Z,6.35
2023-05-24T07:14:39.803Z,4.43
2023-05-24T07:17:07.437Z,4.73
2023-05-24T07:19:36.170Z,5.03
2023-05-24T07:22:03.727Z,4.60
2023-05-24T07:24:34.924Z,4.85
2023-05-24T07:27:02.569Z,6.10
2023-05-24T07:29:30.058Z,4.57
2023-05-24T07:31:58.280Z,4.83
2023-05-24T07:34:27.804Z,7.93
2023-05-24T07:36:55.243Z,5.87
2023-05-24T07:39:23.452Z,5.13
2023-05-24T07:41:51.083Z,6.33
2023-05-24T07:44:18.483Z,5.80
2023-05-24T07:46:46.140Z,7.47
2023-05-24T07:49:13.700Z,6.17
2023-05-24T07:51:41.165Z,7.10
2023-05-24T07:54:08.560Z,6.80
2023-05-24T07:56:36.363Z,7.67
2023-05-24T07:59:05.041Z,5.57
2023-05-24T08:01:34.531Z,9.17
2023-05-24T08:04:04.317Z,7.37
2023-05-24T08:06:35.382Z,7.67
2023-05-24T08:09:04.535Z,8.13
2023-05-24T08:11:32.005Z,6.63
2023-05-24T08:13:59.406Z,7.88
2023-05-24T08:16:26.983Z,5.77
2023-05-24T08:18:55.885Z,8.83
2023-05-24T08:21:23.719Z,6.03
2023-05-24T08:23:51.424Z,9.15
2023-05-24T08:26:21.057Z,5.38
2023-05-24T08:28:48.642Z,5.35
2023-05-24T08:31:16.522Z,6.00
2023-05-24T08:33:44.292Z,4.90
2023-05-24T08:36:11.812Z,5.57
2023-05-24T08:38:39.328Z,5.38
2023-05-24T08:41:09.989Z,7.28
2023-05-24T08:43:38.120Z,5.43
2023-05-24T08:46:06.565Z,5.72
2023-05-24T08:48:35.364Z,6.07
2023-05-24T08:51:04.124Z,5.80
2023-05-24T08:53:31.692Z,5.25
2023-05-24T08:55:59.291Z,8.93
2023-05-24T08:58:26.809Z,7.43
2023-05-24T09:00:54.449Z,5.85
2023-05-24T09:03:22.332Z,6.10
2023-05-24T09:05:50.010Z,5.70
2023-05-24T09:08:18.539Z,8.70
2023-05-24T09:13:20.292Z,6.50
2023-05-24T09:15:47.861Z,6.13
2023-05-24T09:18:15.426Z,7.05
2023-05-24T09:20:43.029Z,6.32
2023-05-24T09:23:14.773Z,7.15
2023-05-24T09:25:46.349Z,7.88
2023-05-24T09:28:15.086Z,5.80
2023-05-24T09:30:46.039Z,9.07
2023-05-24T09:33:13.792Z,6.13
2023-05-24T09:35:44.783Z,8.77
2023-05-24T09:38:18.997Z,7.90
2023-05-24T09:40:47.063Z,6.45
2023-05-24T09:43:14.454Z,6.75
2023-05-24T09:45:49.331Z,5.55
2023-05-24T09:48:17.997Z,5.95
2023-05-24T09:50:49.439Z,4.90
2023-05-24T09:53:19.979Z,5.72
2023-05-24T09:55:47.574Z,6.80
2023-05-24T09:58:16.926Z,5.28
2023-05-24T10:00:44.598Z,5.45
2023-05-24T10:03:15.620Z,6.28
2023-05-24T10:05:45.532Z,6.40
2023-05-24T10:08:14.615Z,6.00
2023-05-24T10:10:43.689Z,5.05
2023-05-24T10:13:11.845Z,4.93
2023-05-24T10:15:39.253Z,5.72
2023-05-24T10:18:10.572Z,5.55
2023-05-24T10:20:44.681Z,7.13
2023-05-24T10:23:15.326Z,4.57
2023-05-24T10:25:45.022Z,5.43
2023-05-24T10:28:13.820Z,4.25
2023-05-24T10:30:53.375Z,5.45
2023-05-24T10:33:23.167Z,5.70
2023-05-24T10:35:51.366Z,4.45
2023-05-24T10:38:21.162Z,4.00
2023-05-24T10:40:48.715Z,4.18
2023-05-24T10:43:17.647Z,7.75
2023-05-24T10:45:49.185Z,4.57
2023-05-24T10:48:17.284Z,6.40
2023-05-24T10:50:45.288Z,4.22
2023-05-24T10:53:33.366Z,5.13
2023-05-24T10:56:04.563Z,5.53
2023-05-24T10:58:35.562Z,5.63
2023-05-24T11:01:03.641Z,5.70
2023-05-24T11:03:35.002Z,5.13
2023-05-24T11:06:03.228Z,5.15
2023-05-24T11:08:38.015Z,5.30
2023-05-24T11:11:23.184Z,5.13
2023-05-24T11:13:57.607Z,4.88
2023-05-24T11:16:39.536Z,6.03
2023-05-24T11:19:16.526Z,5.03
2023-05-24T11:21:47.828Z,5.90
2023-05-24T11:24:17.047Z,5.97
2023-05-24T11:26:44.928Z,5.60
2023-05-24T11:29:21.281Z,6.47
2023-05-24T11:31:57.869Z,5.82
2023-05-24T11:34:27.676Z,6.90
2023-05-24T11:36:55.640Z,6.00
2023-05-24T11:39:27.083Z,6.55
2023-05-24T11:41:55.056Z,7.28
2023-05-24T11:44:22.689Z,6.18
2023-05-24T11:46:50.201Z,6.78
2023-05-24T11:49:18.293Z,6.45
2023-05-24T11:51:45.720Z,6.40
2023-05-24T11:54:13.205Z,6.43
2023-05-24T11:56:40.645Z,8.18
2023-05-24T11:59:11.097Z,9.13
2023-05-24T12:01:38.685Z,8.40
2023-05-24T12:04:10.218Z,13.65
2023-05-24T12:06:38.692Z,5.85
2023-05-24T12:09:08.654Z,7.57
2023-05-24T12:11:40.212Z,9.95
2023-05-24T12:14:09.058Z,9.30
2023-05-24T12:16:37.688Z,8.00
2023-05-24T12:19:11.610Z,8.30
2023-05-24T12:21:43.583Z,7.78
2023-05-24T12:24:22.123Z,7.90
2023-05-24T12:26:49.886Z,7.85
2023-05-24T12:29:17.969Z,8.07
2023-05-24T12:31:48.298Z,8.43
2023-05-24T12:34:19.496Z,8.18
2023-05-24T12:36:47.974Z,7.07
2023-05-24T12:39:31.633Z,8.18
2023-05-24T12:42:02.024Z,7.80
2023-05-24T12:44:33.754Z,7.20
2023-05-24T12:47:02.548Z,8.00
2023-05-24T12:49:30.051Z,7.32
2023-05-24T12:51:57.882Z,9.23
2023-05-24T12:54:26.473Z,7.13
2023-05-24T12:56:56.585Z,10.63
2023-05-24T12:59:24.765Z,9.43
2023-05-24T13:01:52.785Z,7.63
2023-05-24T13:04:21.587Z,7.80
2023-05-24T13:06:49.629Z,7.10
2023-05-24T13:09:19.451Z,5.72
2023-05-24T13:11:47.411Z,6.22
2023-05-24T13:14:16.892Z,6.05
2023-05-24T13:16:44.876Z,6.28
2023-05-24T13:19:12.765Z,5.47
2023-05-24T13:21:40.808Z,6.50
2023-05-24T13:24:08.843Z,5.05
2023-05-24T13:26:38.093Z,6.25
2023-05-24T13:31:38.324Z,4.85
2023-05-24T13:34:06.231Z,4.63
2023-05-24T13:36:34.066Z,4.43
2023-05-24T13:39:14.824Z,4.80
2023-05-24T13:41:46.063Z,4.03
2023-05-24T13:44:17.130Z,5.45
2023-05-24T13:46:44.918Z,2.88
2023-05-24T13:49:13.043Z,4.22
2023-05-24T13:51:40.745Z,3.78
2023-05-24T13:54:09.341Z,3.70
2023-05-24T13:56:37.268Z,3.05
2023-05-24T13:59:05.581Z,5.70
2023-05-24T14:01:34.257Z,3.95
2023-05-24T14:04:02.627Z,4.25
2023-05-24T14:06:30.210Z,5.70
2023-05-24T14:08:57.728Z,5.15
2023-05-24T14:11:25.678Z,4.70
2023-05-24T14:16:24.262Z,4.70
2023-05-24T14:18:52.132Z,5.97
2023-05-24T14:21:21.866Z,5.78
2023-05-24T14:23:49.486Z,4.00
2023-05-24T14:26:18.049Z,3.88
2023-05-24T14:28:45.559Z,7.45
2023-05-24T14:31:13.307Z,5.50
2023-05-24T14:33:41.008Z,2.58
2023-05-24T14:36:08.923Z,4.00
2023-05-24T14:38:36.787Z,2.78
2023-05-24T14:41:04.292Z,4.60
2023-05-24T14:43:31.763Z,2.88
2023-05-24T14:45:59.319Z,2.25
2023-05-24T14:48:26.778Z,2.38
2023-05-24T14:50:54.280Z,2.00
2023-05-24T14:53:21.726Z,2.78
2023-05-24T14:55:49.246Z,3.72
2023-05-24T14:58:16.689Z,3.17
2023-05-24T15:00:44.594Z,1.98
2023-05-24T15:03:15.474Z,1.40
2023-05-24T15:05:43.283Z,2.00
2023-05-24T15:08:11.757Z,1.70
2023-05-24T15:10:39.615Z,2.13
2023-05-24T15:13:07.126Z,2.05
2023-05-24T15:15:34.645Z,3.15
2023-05-24T15:18:02.478Z,1.10
2023-05-24T15:20:30.067Z,1.30
2023-05-24T15:22:57.573Z,0.50
2023-05-24T15:25:25.007Z,1.63
2023-05-24T15:27:52.515Z,2.30
2023-05-24T15:30:21.008Z,0.60
2023-05-24T15:32:48.434Z,1.10
2023-05-24T15:35:16.448Z,0.70
2023-05-24T15:37:44.046Z,1.52
2023-05-24T15:40:12.045Z,0.93
2023-05-24T15:42:39.848Z,2.60
2023-05-24T15:45:07.655Z,0.60
2023-05-24T15:47:39.910Z,0.52
2023-05-24T15:50:08.504Z,0.50
2023-05-24T15:52:36.610Z,0.80
2023-05-24T15:55:04.566Z,0.40
2023-05-24T15:57:32.258Z,0.90
2023-05-24T15:59:59.857Z,1.90
2023-05-24T16:02:27.442Z,1.52
2023-05-24T16:04:55.712Z,0.60
2023-05-24T16:07:26.521Z,0.40
2023-05-24T16:09:54.257Z,1.50
2023-05-24T16:12:22.091Z,1.15
2023-05-24T16:14:49.727Z,0.30
2023-05-24T16:17:17.299Z,0.63
2023-05-24T16:19:49.703Z,0.25
2023-05-24T16:22:17.801Z,0.55
2023-05-24T16:24:45.433Z,0.35
2023-05-24T16:27:12.923Z,1.23
2023-05-24T16:29:40.492Z,0.40
2023-05-24T16:32:08.834Z,0.25
2023-05-24T16:34:45.103Z,0.60
2023-05-24T16:37:23.288Z,0.52
2023-05-24T16:39:50.974Z,0.35
2023-05-24T16:42:18.362Z,0.40
2023-05-24T16:44:45.802Z,0.38
2023-05-24T16:47:13.267Z,0.40
2023-05-24T16:49:40.930Z,2.10
2023-05-24T16:52:08.672Z,0.80
2023-05-24T16:54:36.136Z,1.98
2023-05-24T16:57:03.733Z,0.60
2023-05-24T16:59:31.391Z,0.45
2023-05-24T17:01:58.950Z,0.80
2023-05-24T17:04:26.408Z,2.05
2023-05-24T17:06:53.762Z,3.55
2023-05-24T17:09:21.521Z,3.50
2023-05-24T17:11:50.849Z,2.75
2023-05-24T17:14:18.572Z,0.60
2023-05-24T17:16:46.111Z,0.70
2023-05-24T17:19:14.154Z,0.50
2023-05-24T17:21:42.179Z,0.65
2023-05-24T17:24:09.613Z,1.10
2023-05-24T17:26:39.135Z,1.67
2023-05-24T17:29:06.627Z,5.13
2023-05-24T17:31:34.343Z,3.85
2023-05-24T17:34:02.093Z,4.38
2023-05-24T17:36:33.494Z,2.03
2023-05-24T17:39:01.093Z,2.88
2023-05-24T17:41:28.597Z,2.60
2023-05-24T17:43:55.997Z,2.97
2023-05-24T17:46:23.595Z,4.10
2023-05-24T17:48:52.144Z,2.73
2023-05-24T17:51:19.898Z,10.10
2023-05-24T17:53:48.055Z,2.80
2023-05-24T17:56:15.647Z,2.63
2023-05-24T17:58:43.640Z,1.80
2023-05-24T18:01:13.027Z,2.20
2023-05-24T18:03:41.964Z,1.80
2023-05-24T18:06:09.937Z,5.33
2023-05-24T18:08:38.462Z,3.17
2023-05-24T18:11:09.796Z,3.43
2023-05-24T18:13:42.058Z,2.57
2023-05-24T18:16:10.892Z,1.73
2023-05-24T18:18:38.686Z,1.88
2023-05-24T18:21:06.602Z,3.08
2023-05-24T18:23:37.772Z,1.15
2023-05-24T18:26:09.087Z,1.27
2023-05-24T18:28:37.737Z,1.45
2023-05-24T18:31:08.769Z,1.50
2023-05-24T18:33:36.566Z,3.28
2023-05-24T18:36:05.743Z,1.73
2023-05-24T18:38:36.452Z,5.00
2023-05-24T18:41:06.561Z,1.67
2023-05-24T18:43:34.421Z,1.30
2023-05-24T18:46:02.247Z,2.65
2023-05-24T18:48:29.889Z,1.38
2023-05-24T18:50:57.464Z,3.63
2023-05-24T18:53:26.084Z,1.30
2023-05-24T18:55:53.515Z,1.52
2023-05-24T18:58:23.839Z,2.53
2023-05-24T19:00:51.344Z,2.22
2023-05-24T19:03:18.796Z,1.13
2023-05-24T19:05:46.584Z,1.80
2023-05-24T19:08:14.448Z,1.42
2023-05-24T19:10:42.065Z,2.63
2023-05-24T19:13:09.525Z,2.03
2023-05-24T19:15:37.538Z,2.28
2023-05-24T19:18:05.276Z,1.17
2023-05-24T19:20:32.867Z,1.95
2023-05-24T19:23:00.302Z,1.67
2023-05-24T19:25:27.803Z,2.40
2023-05-24T19:27:59.731Z,1.67
2023-05-24T19:30:28.151Z,1.73
2023-05-24T19:32:55.910Z,1.65
2023-05-24T19:35:23.730Z,1.00
2023-05-24T19:37:52.445Z,0.70
2023-05-24T19:40:20.530Z,2.55
2023-05-24T19:42:47.970Z,1.17
2023-05-24T19:45:15.565Z,1.35
2023-05-24T19:47:43.901Z,1.35
2023-05-24T19:50:11.661Z,1.02
2023-05-24T19:52:39.045Z,1.83
2023-05-24T19:55:06.764Z,1.17
2023-05-24T19:57:34.278Z,2.83
2023-05-24T20:00:02.168Z,2.45
2023-05-24T20:02:29.641Z,1.70
2023-05-24T20:04:57.206Z,1.38
2023-05-24T20:07:24.622Z,0.80
2023-05-24T20:09:53.689Z,1.77
2023-05-24T20:12:21.255Z,2.95
2023-05-24T20:14:51.292Z,1.10
2023-05-24T20:17:18.696Z,1.10
2023-05-24T20:19:46.603Z,1.42
2023-05-24T20:22:16.324Z,2.40
2023-05-24T20:24:43.789Z,2.83
2023-05-24T20:27:11.245Z,1.88
2023-05-24T20:29:38.687Z,1.77
2023-05-24T20:32:06.476Z,1.42
2023-05-24T20:34:34.056Z,2.47
2023-05-24T20:37:01.533Z,1.63
2023-05-24T20:39:32.048Z,1.07
2023-05-24T20:41:59.603Z,2.47
2023-05-24T20:44:27.086Z,1.52
2023-05-24T20:46:54.532Z,1.38
2023-05-24T20:49:21.965Z,0.93
2023-05-24T20:51:49.409Z,4.30
2023-05-24T20:54:16.991Z,1.23
2023-05-24T20:56:44.406Z,3.93
2023-05-24T20:59:11.962Z,1.20
2023-05-24T21:01:39.593Z,1.52
2023-05-24T21:04:07.137Z,3.08
2023-05-24T21:06:34.610Z,1.08
2023-05-24T21:09:02.337Z,0.80
2023-05-24T21:11:32.720Z,0.97
2023-05-24T21:14:00.205Z,1.13
2023-05-24T21:16:28.365Z,0.75
2023-05-24T21:18:55.927Z,1.30
2023-05-24T21:21:24.525Z,1.60
2023-05-24T21:23:51.919Z,0.80
2023-05-24T21:26:19.678Z,0.70
2023-05-24T21:28:47.166Z,4.65
2023-05-24T21:31:14.689Z,1.75
2023-05-24T21:33:44.139Z,1.00
2023-05-24T21:36:11.885Z,0.85
2023-05-24T21:38:39.446Z,0.63
2023-05-24T21:41:06.879Z,0.77
2023-05-24T21:43:34.287Z,0.65
2023-05-24T21:46:01.688Z,2.93
2023-05-24T21:48:29.100Z,0.80
2023-05-24T21:50:56.525Z,1.67
2023-05-24T21:53:23.929Z,0.55
2023-05-24T21:55:51.752Z,1.13
2023-05-24T21:58:19.166Z,0.60
2023-05-24T22:00:46.641Z,1.27
2023-05-24T22:03:14.286Z,2.57
2023-05-24T22:05:41.786Z,4.13
2023-05-24T22:08:09.248Z,1.37
2023-05-24T22:10:36.709Z,3.63
2023-05-24T22:13:04.240Z,0.80
2023-05-24T22:15:34.781Z,1.47
2023-05-24T22:18:02.395Z,1.47
2023-05-24T22:20:31.996Z,2.20
2023-05-24T22:23:00.316Z,1.67
2023-05-24T22:25:27.767Z,2.40
2023-05-24T22:27:58.458Z,1.90
2023-05-24T22:30:26.554Z,3.93
2023-05-24T22:32:54.096Z,1.73
2023-05-24T22:35:21.525Z,2.57
2023-05-24T22:37:48.931Z,3.07
2023-05-24T22:40:16.452Z,1.40
2023-05-24T22:42:43.929Z,1.80
2023-05-24T22:45:11.856Z,3.97
2023-05-24T22:47:40.077Z,3.40
2023-05-24T22:50:08.405Z,1.87
2023-05-24T22:52:36.682Z,3.27
2023-05-24T22:55:04.361Z,2.00
2023-05-24T22:57:31.931Z,2.80
2023-05-24T22:59:59.414Z,2.87
2023-05-24T23:02:29.341Z,4.27
2023-05-24T23:04:57.033Z,2.00
2023-05-24T23:07:25.324Z,2.77
2023-05-24T23:09:53.569Z,1.70
2023-05-24T23:12:21.080Z,1.90
2023-05-24T23:14:48.612Z,2.40
2023-05-24T23:17:17.237Z,2.10
2023-05-24T23:19:44.847Z,4.90
2023-05-24T23:22:13.042Z,3.63
2023-05-24T23:24:42.409Z,2.90
2023-05-24T23:27:10.124Z,3.10
2023-05-24T23:29:41.016Z,4.27
2023-05-24T23:32:09.180Z,5.10
2023-05-24T23:34:37.249Z,4.17
2023-05-24T23:37:05.549Z,4.93
2023-05-24T23:39:36.190Z,4.07
2023-05-24T23:42:03.939Z,5.43
2023-05-24T23:44:31.407Z,4.97
2023-05-24T23:46:59.215Z,5.87
2023-05-24T23:49:26.658Z,7.17
2023-05-24T23:51:54.132Z,6.40
2023-05-24T23:54:21.686Z,5.53
2023-05-24T23:56:49.152Z,7.80
2023-05-24T23:59:17.571Z,7.43
